Time;durP1;ratioP1;P1;durP2;ratioP2;P2;SDS_P1;SDS_P2;PMS_P1;PMS_P2;Temp;Humidity;BMP_temperature;BMP_pressure;BME280_temperature;BME280_humidity;BME280_pressure;Samples;Min_cycle;Max_cycle;Signal;HPM_P1;HPM_P2
2023/08/17 00:01:30;;;;;;;10.70;1.80;;;19.30;68.60;;;;;;9166993;19;20018;-70
2023/08/17 00:04:38;;;;;;;4.32;1.77;;;19.30;68.60;;;;;;9164890;19;20070;-67
2023/08/17 00:07:45;;;;;;;3.90;1.75;;;19.20;68.70;;;;;;9166644;19;20021;-69
2023/08/17 00:10:55;;;;;;;4.75;1.80;;;19.20;68.80;;;;;;9167133;19;20022;-70
2023/08/17 00:14:00;;;;;;;7.65;1.67;;;19.10;68.90;;;;;;9162972;19;20620;-68
2023/08/17 00:17:07;;;;;;;6.55;1.48;;;19.10;69.00;;;;;;9163571;19;20357;-69
2023/08/17 00:20:14;;;;;;;8.38;1.75;;;19.10;69.00;;;;;;9166444;19;20769;-71
2023/08/17 00:23:21;;;;;;;7.63;1.77;;;19.10;69.10;;;;;;9164724;19;20018;-68
2023/08/17 00:26:29;;;;;;;3.28;1.55;;;19.10;69.10;;;;;;9168128;19;20022;-68
2023/08/17 00:29:37;;;;;;;6.60;2.05;;;19.10;69.20;;;;;;9165331;19;20026;-69
2023/08/17 00:32:44;;;;;;;4.50;1.60;;;19.00;69.20;;;;;;9165286;19;20131;-70
2023/08/17 00:35:52;;;;;;;6.88;2.42;;;19.00;69.30;;;;;;9164528;19;20018;-70
2023/08/17 00:38:57;;;;;;;6.68;2.33;;;19.00;69.40;;;;;;9164165;19;20029;-69
2023/08/17 00:42:08;;;;;;;6.78;1.83;;;18.90;69.40;;;;;;9166391;19;20366;-70
2023/08/17 00:45:13;;;;;;;7.40;1.60;;;18.90;69.50;;;;;;9166718;19;20022;-69
2023/08/17 00:48:21;;;;;;;8.40;2.17;;;18.90;69.50;;;;;;9164522;19;20380;-68
2023/08/17 00:51:28;;;;;;;5.88;1.58;;;18.90;69.60;;;;;;9164420;19;20017;-68
2023/08/17 00:54:35;;;;;;;5.57;1.50;;;18.80;69.70;;;;;;9163310;19;20038;-70
2023/08/17 00:57:48;;;;;;;8.95;1.58;;;18.80;69.80;;;;;;9161962;19;20085;-72
2023/08/17 01:00:55;;;;;;;8.50;1.63;;;18.70;69.90;;;;;;9165681;19;20429;-72
2023/08/17 01:04:00;;;;;;;4.03;1.35;;;18.70;69.90;;;;;;9163867;19;20033;-71
2023/08/17 01:07:08;;;;;;;6.82;1.60;;;18.70;70.00;;;;;;9165533;19;20015;-71
2023/08/17 01:10:14;;;;;;;4.15;1.75;;;18.70;70.10;;;;;;9164396;19;20010;-70
2023/08/17 01:13:32;;;;;;;5.32;1.58;;;18.70;70.10;;;;;;9163936;19;20085;-72
2023/08/17 01:16:42;;;;;;;5.88;1.30;;;18.70;70.30;;;;;;9165468;19;20029;-71
2023/08/17 01:19:53;;;;;;;5.32;1.65;;;18.70;70.30;;;;;;9163186;19;20044;-70
2023/08/17 01:23:08;;;;;;;4.78;1.50;;;18.70;70.20;;;;;;9162992;19;20033;-69
2023/08/17 01:26:16;;;;;;;7.05;1.50;;;18.70;70.30;;;;;;9162436;19;20022;-69
2023/08/17 01:29:24;;;;;;;10.35;1.90;;;18.70;70.30;;;;;;9162849;19;20018;-70
2023/08/17 01:32:39;;;;;;;6.82;2.10;;;18.70;70.30;;;;;;9163409;19;20010;-70
2023/08/17 01:35:49;;;;;;;6.05;1.63;;;18.70;70.40;;;;;;9163507;19;20029;-69
2023/08/17 01:38:59;;;;;;;8.68;1.45;;;18.70;70.40;;;;;;9164509;19;20017;-68
2023/08/17 01:42:07;;;;;;;4.40;1.27;;;18.70;70.50;;;;;;9163922;19;20042;-71
2023/08/17 01:45:15;;;;;;;4.97;2.20;;;18.70;70.40;;;;;;9162145;19;20029;-69
2023/08/17 01:48:21;;;;;;;11.25;1.90;;;18.70;70.40;;;;;;9160868;19;20365;-70
2023/08/17 01:51:29;;;;;;;4.65;1.60;;;18.70;70.40;;;;;;9160611;19;20021;-70
2023/08/17 01:54:37;;;;;;;5.88;1.70;;;18.60;70.50;;;;;;9161150;19;20011;-71
2023/08/17 01:57:45;;;;;;;6.75;2.45;;;18.70;70.60;;;;;;9156726;19;20022;-70
2023/08/17 02:00:50;;;;;;;4.93;1.52;;;18.60;70.60;;;;;;9162127;19;20018;-68
2023/08/17 02:03:59;;;;;;;6.72;1.60;;;18.60;70.60;;;;;;9163429;19;20014;-71
2023/08/17 02:07:05;;;;;;;10.57;1.60;;;18.60;70.60;;;;;;9163469;19;20015;-68
2023/08/17 02:10:15;;;;;;;4.50;1.63;;;18.60;70.70;;;;;;9160009;19;20025;-69
2023/08/17 02:13:22;;;;;;;5.00;1.27;;;18.60;70.70;;;;;;9162315;19;20121;-68
2023/08/17 02:16:29;;;;;;;5.88;2.00;;;18.60;70.80;;;;;;9160659;19;20034;-69
2023/08/17 02:19:35;;;;;;;4.20;1.75;;;18.50;70.80;;;;;;9161765;19;20024;-68
2023/08/17 02:22:43;;;;;;;5.10;2.28;;;18.50;70.80;;;;;;9172319;19;20029;-67
2023/08/17 02:25:51;;;;;;;6.65;1.80;;;18.50;70.80;;;;;;9171762;19;20022;-69
2023/08/17 02:29:01;;;;;;;5.05;1.58;;;18.50;70.90;;;;;;9170858;19;20917;-71
2023/08/17 02:32:07;;;;;;;8.50;1.77;;;18.50;70.90;;;;;;9169296;19;20011;-68
2023/08/17 02:35:17;;;;;;;4.15;1.40;;;18.50;71.00;;;;;;9168696;19;20026;-71
2023/08/17 02:38:23;;;;;;;3.70;1.33;;;18.50;70.90;;;;;;9171659;19;20018;-69
2023/08/17 02:41:34;;;;;;;5.60;1.60;;;18.50;71.00;;;;;;9171390;19;20329;-70
2023/08/17 02:44:39;;;;;;;8.93;1.98;;;18.50;71.10;;;;;;9169279;19;20070;-69
2023/08/17 02:47:49;;;;;;;6.50;1.73;;;18.50;71.10;;;;;;9167240;19;20024;-69
2023/08/17 02:50:54;;;;;;;8.27;1.92;;;18.40;71.10;;;;;;9168194;19;20487;-71
2023/08/17 02:54:01;;;;;;;9.20;1.60;;;18.50;71.20;;;;;;9168897;19;20429;-68
2023/08/17 02:57:10;;;;;;;4.85;1.65;;;18.40;71.10;;;;;;9164172;19;20056;-72
2023/08/17 03:00:18;;;;;;;5.85;1.50;;;18.40;71.20;;;;;;9170504;19;20022;-71
2023/08/17 03:03:23;;;;;;;9.82;1.30;;;18.40;71.20;;;;;;9170841;19;20015;-69
2023/08/17 03:06:30;;;;;;;7.32;1.63;;;18.40;71.20;;;;;;9168058;19;20018;-69
2023/08/17 03:09:36;;;;;;;2.47;1.15;;;18.40;71.20;;;;;;9170649;19;20022;-68
2023/08/17 03:12:46;;;;;;;6.25;1.70;;;18.30;71.20;;;;;;9167269;19;20026;-71
2023/08/17 03:15:51;;;;;;;6.15;1.65;;;18.30;71.30;;;;;;9166672;19;20432;-70
2023/08/17 03:19:00;;;;;;;6.63;1.65;;;18.30;71.30;;;;;;9170073;19;20052;-72
2023/08/17 03:22:06;;;;;;;7.07;1.35;;;18.40;71.40;;;;;;9169168;19;20042;-71
2023/08/17 03:25:13;;;;;;;7.13;1.98;;;18.30;71.40;;;;;;9170110;19;20014;-70
2023/08/17 03:28:24;;;;;;;4.68;1.70;;;18.30;71.40;;;;;;9167976;19;20015;-68
2023/08/17 03:31:32;;;;;;;4.18;1.67;;;18.30;71.50;;;;;;9168884;19;20025;-68
2023/08/17 03:34:37;;;;;;;5.63;1.52;;;18.30;71.40;;;;;;9165194;19;20116;-67
2023/08/17 03:37:45;;;;;;;9.20;1.92;;;18.30;71.50;;;;;;9168884;19;20014;-68
2023/08/17 03:40:51;;;;;;;7.32;1.55;;;18.30;71.50;;;;;;9167047;19;20014;-67
2023/08/17 03:44:05;;;;;;;6.45;1.38;;;18.30;71.50;;;;;;9167882;19;20022;-69
2023/08/17 03:47:11;;;;;;;5.07;1.30;;;18.30;71.60;;;;;;9167356;19;20062;-70
2023/08/17 03:50:19;;;;;;;9.05;1.70;;;18.40;71.70;;;;;;9166372;19;20015;-68
2023/08/17 03:53:24;;;;;;;7.00;1.30;;;18.40;71.70;;;;;;9166434;19;20017;-69
2023/08/17 03:56:32;;;;;;;5.82;1.80;;;18.40;71.70;;;;;;9160803;19;20024;-68
2023/08/17 03:59:40;;;;;;;3.97;1.55;;;18.40;71.70;;;;;;9166683;19;20010;-69
2023/08/17 04:02:48;;;;;;;5.72;1.42;;;18.40;72.30;;;;;;9163934;19;20015;-68
2023/08/17 04:05:56;;;;;;;5.38;1.73;;;18.40;71.70;;;;;;9165910;19;20030;-69
2023/08/17 04:09:04;;;;;;;3.08;1.45;;;18.40;71.70;;;;;;9166246;19;20018;-69
2023/08/17 04:12:11;;;;;;;6.10;1.92;;;18.40;71.60;;;;;;9168635;19;20019;-70
2023/08/17 04:15:21;;;;;;;7.80;2.05;;;18.40;71.70;;;;;;9164213;19;20490;-70
2023/08/17 04:18:26;;;;;;;6.53;1.50;;;18.40;71.80;;;;;;9165406;19;20014;-67
2023/08/17 04:21:34;;;;;;;9.10;1.85;;;18.40;71.70;;;;;;9164885;19;20013;-68
2023/08/17 04:24:42;;;;;;;10.77;2.00;;;18.40;71.70;;;;;;9165141;19;20052;-70
2023/08/17 04:27:49;;;;;;;6.63;1.80;;;18.40;71.80;;;;;;9167265;19;20026;-70
2023/08/17 04:30:57;;;;;;;11.13;1.50;;;18.40;71.80;;;;;;9167220;19;20025;-69
2023/08/17 04:34:09;;;;;;;9.25;1.48;;;18.40;71.80;;;;;;9164960;19;20278;-70
2023/08/17 04:37:15;;;;;;;7.68;1.70;;;18.40;71.80;;;;;;9164376;19;20018;-70
2023/08/17 04:40:22;;;;;;;6.55;1.63;;;18.40;71.90;;;;;;9166532;19;20015;-71
2023/08/17 04:43:28;;;;;;;3.78;1.50;;;18.40;71.80;;;;;;9162657;19;20018;-71
2023/08/17 04:46:38;;;;;;;5.28;1.75;;;18.40;71.90;;;;;;9164172;19;20049;-69
2023/08/17 04:49:44;;;;;;;6.70;2.00;;;18.40;71.90;;;;;;9162083;19;20010;-69
2023/08/17 04:52:51;;;;;;;8.38;1.63;;;18.40;71.90;;;;;;9163738;19;20349;-72
2023/08/17 04:55:57;;;;;;;6.43;1.85;;;18.30;71.90;;;;;;9162752;19;20372;-70
2023/08/17 04:59:08;;;;;;;6.00;1.63;;;18.30;71.90;;;;;;9161189;19;20015;-69
2023/08/17 05:02:16;;;;;;;9.45;1.98;;;18.40;72.00;;;;;;9160502;19;20033;-70
2023/08/17 05:05:24;;;;;;;7.95;1.92;;;18.30;72.00;;;;;;9163573;19;20368;-70
2023/08/17 05:08:29;;;;;;;4.50;1.63;;;18.30;72.00;;;;;;9159552;19;20021;-69
2023/08/17 05:11:37;;;;;;;11.15;2.15;;;18.30;72.10;;;;;;9159086;19;21730;-71
2023/08/17 05:14:42;;;;;;;5.85;2.20;;;18.30;72.20;;;;;;9155745;19;20022;-70
2023/08/17 05:17:53;;;;;;;6.40;1.73;;;18.30;72.20;;;;;;9152579;19;20018;-72
2023/08/17 05:20:59;;;;;;;6.80;2.00;;;18.30;72.30;;;;;;9155057;19;20068;-69
2023/08/17 05:24:07;;;;;;;7.65;1.80;;;18.30;72.30;;;;;;9155623;19;20021;-70
2023/08/17 05:27:13;;;;;;;5.90;1.30;;;18.30;72.40;;;;;;9162877;19;20017;-69
2023/08/17 05:30:20;;;;;;;4.40;1.58;;;18.20;72.30;;;;;;9163801;19;20018;-71
2023/08/17 05:33:28;;;;;;;4.30;1.92;;;18.20;72.40;;;;;;9163205;19;21081;-69
2023/08/17 05:36:36;;;;;;;5.90;2.08;;;18.20;72.50;;;;;;9161175;19;20037;-70
2023/08/17 05:39:41;;;;;;;8.82;2.00;;;18.20;72.50;;;;;;9163268;19;20014;-70
2023/08/17 05:42:49;;;;;;;8.65;1.77;;;18.20;72.60;;;;;;9161623;19;20479;-69
2023/08/17 05:45:55;;;;;;;14.05;2.45;;;18.20;72.60;;;;;;9161861;19;20386;-69
2023/08/17 05:49:07;;;;;;;4.55;1.83;;;18.20;72.60;;;;;;9160843;19;20103;-69
2023/08/17 05:52:13;;;;;;;4.03;1.77;;;18.20;72.70;;;;;;9162347;19;20015;-71
2023/08/17 05:55:20;;;;;;;4.15;1.35;;;18.20;72.70;;;;;;9161216;19;20348;-70
2023/08/17 05:58:26;;;;;;;24.90;2.30;;;18.20;72.90;;;;;;9158529;19;20509;-67
2023/08/17 06:01:33;;;;;;;7.97;2.78;;;18.20;72.90;;;;;;9161352;19;20799;-70
2023/08/17 06:04:41;;;;;;;7.15;2.10;;;18.20;72.90;;;;;;9162365;19;20010;-68
2023/08/17 06:07:49;;;;;;;5.57;2.15;;;18.20;73.00;;;;;;9162724;19;20018;-70
2023/08/17 06:10:54;;;;;;;11.50;1.75;;;18.20;72.90;;;;;;9163759;19;20018;-69
2023/08/17 06:14:02;;;;;;;7.70;1.73;;;18.20;73.60;;;;;;9160928;19;20022;-67
2023/08/17 06:17:07;;;;;;;10.07;3.15;;;18.20;73.00;;;;;;9158889;19;20029;-69
2023/08/17 06:20:17;;;;;;;11.27;2.10;;;18.20;73.10;;;;;;9162098;19;20352;-68
2023/08/17 06:23:23;;;;;;;7.00;2.28;;;18.20;73.10;;;;;;9161929;19;20821;-71
2023/08/17 06:26:30;;;;;;;6.72;2.05;;;18.30;73.10;;;;;;9160021;19;20014;-69
2023/08/17 06:29:36;;;;;;;6.88;1.70;;;18.30;73.20;;;;;;9160191;19;20023;-70
2023/08/17 06:32:43;;;;;;;6.88;2.13;;;18.30;73.10;;;;;;9160441;19;20015;-68
2023/08/17 06:35:51;;;;;;;7.97;2.10;;;18.30;73.20;;;;;;9159584;19;20513;-72
2023/08/17 06:38:59;;;;;;;11.95;3.25;;;18.40;73.30;;;;;;9158669;19;20006;-70
2023/08/17 06:42:05;;;;;;;6.78;2.13;;;18.40;73.20;;;;;;9160820;19;20015;-69
2023/08/17 06:45:12;;;;;;;11.45;2.35;;;18.40;73.20;;;;;;9160027;19;20042;-70
2023/08/17 06:48:18;;;;;;;7.75;2.20;;;18.50;73.20;;;;;;9160751;19;20018;-71
2023/08/17 06:51:28;;;;;;;3.33;1.60;;;18.50;73.20;;;;;;9158755;19;20366;-70
2023/08/17 06:54:33;;;;;;;14.70;3.30;;;18.50;73.30;;;;;;9162033;19;20024;-69
2023/08/17 06:57:41;;;;;;;6.80;2.08;;;18.60;73.20;;;;;;9153081;19;20360;-73
2023/08/17 07:00:46;;;;;;;11.30;2.28;;;18.60;73.20;;;;;;9160331;19;20408;-71
2023/08/17 07:03:55;;;;;;;7.47;2.10;;;18.60;73.20;;;;;;9160365;19;20431;-71
2023/08/17 07:07:06;;;;;;;13.00;2.10;;;18.70;73.20;;;;;;9162705;19;20048;-72
2023/08/17 07:10:13;;;;;;;4.82;1.65;;;18.70;73.20;;;;;;9163671;19;20025;-68
2023/08/17 07:13:19;;;;;;;4.32;1.73;;;18.70;73.20;;;;;;9166778;19;20031;-70
2023/08/17 07:16:26;;;;;;;7.82;2.13;;;18.80;73.20;;;;;;9162903;19;20752;-68
2023/08/17 07:19:32;;;;;;;7.88;1.63;;;18.80;73.20;;;;;;9163613;19;20040;-68
2023/08/17 07:23:02;;;;;;;5.82;1.63;;;18.80;73.20;;;;;;9165476;19;20018;-71
2023/08/17 07:26:08;;;;;;;5.43;1.52;;;18.80;73.20;;;;;;9169151;19;20029;-68
2023/08/17 07:29:19;;;;;;;7.97;1.65;;;18.90;73.30;;;;;;9167627;19;20014;-69
2023/08/17 07:32:25;;;;;;;14.02;2.78;;;18.90;73.30;;;;;;9169009;19;20018;-69
2023/08/17 07:35:33;;;;;;;7.25;2.00;;;18.90;73.30;;;;;;9167734;19;20026;-71
2023/08/17 07:38:41;;;;;;;5.82;1.63;;;18.90;73.20;;;;;;9164416;19;20488;-70
2023/08/17 07:41:48;;;;;;;10.63;2.30;;;19.00;73.30;;;;;;9167958;19;20918;-69
2023/08/17 07:44:54;;;;;;;4.35;1.67;;;19.00;73.20;;;;;;9168510;19;20022;-69
2023/08/17 07:48:01;;;;;;;5.28;1.85;;;19.00;73.20;;;;;;9166391;19;20023;-69
2023/08/17 07:51:07;;;;;;;8.18;1.95;;;19.10;73.20;;;;;;9166648;19;20033;-69
2023/08/17 07:54:16;;;;;;;8.75;1.80;;;19.10;73.20;;;;;;9167021;19;20369;-70
2023/08/17 07:57:22;;;;;;;8.75;2.00;;;19.10;73.20;;;;;;9161073;19;20022;-72
2023/08/17 08:00:29;;;;;;;8.05;1.80;;;19.10;73.60;;;;;;9163778;19;20029;-69
2023/08/17 08:03:35;;;;;;;6.05;2.30;;;19.10;73.20;;;;;;9163809;19;20052;-71
2023/08/17 08:06:42;;;;;;;6.32;1.67;;;19.20;73.20;;;;;;9160776;19;20455;-72
2023/08/17 08:09:50;;;;;;;9.43;1.90;;;19.20;73.20;;;;;;9163031;19;20404;-69
2023/08/17 08:12:57;;;;;;;7.18;2.05;;;19.20;73.30;;;;;;9162059;19;20577;-69
2023/08/17 08:16:03;;;;;;;5.00;1.67;;;19.20;73.20;;;;;;9167566;19;20109;-70
2023/08/17 08:19:10;;;;;;;11.48;3.08;;;19.30;73.30;;;;;;9160194;19;20018;-68
2023/08/17 08:22:15;;;;;;;10.65;2.30;;;19.30;73.30;;;;;;9167225;19;20026;-70
2023/08/17 08:25:25;;;;;;;7.72;2.10;;;19.30;73.30;;;;;;9165655;19;20014;-69
2023/08/17 08:28:31;;;;;;;4.57;1.90;;;19.30;73.40;;;;;;9166332;19;20029;-72
2023/08/17 08:31:38;;;;;;;10.10;2.40;;;19.30;73.30;;;;;;9166580;19;20022;-69
2023/08/17 08:34:44;;;;;;;6.57;1.88;;;19.40;73.30;;;;;;9167360;19;20021;-70
2023/08/17 08:37:52;;;;;;;7.68;1.88;;;19.40;73.30;;;;;;9164516;19;20014;-70
2023/08/17 08:41:00;;;;;;;9.75;2.33;;;19.40;73.30;;;;;;9163723;19;20376;-70
2023/08/17 08:44:10;;;;;;;9.10;2.20;;;19.40;73.30;;;;;;9161694;19;20098;-72
2023/08/17 08:47:16;;;;;;;5.97;2.53;;;19.40;73.30;;;;;;9165839;19;21068;-69
2023/08/17 08:50:25;;;;;;;12.02;2.47;;;19.40;73.30;;;;;;9163702;19;20010;-71
2023/08/17 08:53:39;;;;;;;8.95;1.98;;;19.40;73.40;;;;;;9166393;19;20018;-71
2023/08/17 08:56:56;;;;;;;7.65;2.17;;;19.40;73.50;;;;;;9160776;19;20018;-72
2023/08/17 09:00:02;;;;;;;7.43;2.45;;;19.40;73.50;;;;;;9164382;19;20750;-69
2023/08/17 09:03:10;;;;;;;5.97;2.60;;;19.40;73.50;;;;;;9163294;19;20125;-70
2023/08/17 09:06:20;;;;;;;7.75;2.17;;;19.40;73.60;;;;;;9165917;19;20018;-71
2023/08/17 09:09:30;;;;;;;;;;;19.40;73.60;;;;;;9164251;19;20014;-69
2023/08/17 09:12:38;;;;;;;8.45;3.28;;;19.40;73.50;;;;;;9165461;19;19968;-71
2023/08/17 09:15:47;;;;;;;7.78;2.38;;;19.40;73.60;;;;;;9162874;19;20021;-69
2023/08/17 09:18:55;;;;;;;6.40;2.97;;;19.40;73.60;;;;;;9162857;19;20519;-70
2023/08/17 09:22:03;;;;;;;11.93;2.90;;;19.40;73.70;;;;;;9162848;19;20022;-72
2023/08/17 09:25:10;;;;;;;9.18;3.15;;;19.40;73.70;;;;;;9165246;19;20613;-72
2023/08/17 09:28:21;;;;;;;7.78;2.55;;;19.40;73.70;;;;;;9163360;19;20506;-71
2023/08/17 09:31:29;;;;;;;12.90;2.33;;;19.40;73.80;;;;;;9163035;19;20490;-70
2023/08/17 09:34:36;;;;;;;6.22;2.40;;;19.40;73.80;;;;;;9164395;19;20028;-70
2023/08/17 09:37:42;;;;;;;11.27;2.47;;;19.50;73.80;;;;;;9161415;19;20024;-69
2023/08/17 09:40:49;;;;;;;5.38;2.30;;;19.50;73.80;;;;;;9160393;19;20025;-70
2023/08/17 09:43:57;;;;;;;5.43;2.38;;;19.50;73.80;;;;;;9163074;19;20354;-71
2023/08/17 09:47:08;;;;;;;11.35;2.50;;;19.50;73.90;;;;;;9162328;19;20021;-71
2023/08/17 09:50:13;;;;;;;6.53;2.90;;;19.60;73.90;;;;;;9162052;19;20235;-68
2023/08/17 09:53:21;;;;;;;11.25;2.95;;;19.60;73.80;;;;;;9161698;19;20026;-70
2023/08/17 09:56:26;;;;;;;5.72;2.67;;;19.60;73.90;;;;;;9157423;19;20138;-69
2023/08/17 09:59:36;;;;;;;6.97;3.28;;;19.60;73.90;;;;;;9160817;19;20010;-70
2023/08/17 10:02:46;;;;;;;8.15;2.97;;;19.60;74.00;;;;;;9162957;19;20022;-70
2023/08/17 10:06:01;;;;;;;5.72;2.97;;;19.60;74.10;;;;;;9162894;19;20030;-69
2023/08/17 10:09:08;;;;;;;6.45;3.22;;;19.70;74.20;;;;;;9163058;19;20330;-72
2023/08/17 10:12:18;;;;;;;7.80;3.28;;;19.70;74.10;;;;;;9161272;19;20021;-69
2023/08/17 10:15:31;;;;;;;6.05;3.72;;;19.70;74.10;;;;;;9161053;19;20030;-70
2023/08/17 10:18:46;;;;;;;7.65;3.10;;;19.70;74.10;;;;;;9158832;19;20468;-68
2023/08/17 10:21:59;;;;;;;6.67;2.80;;;19.70;74.10;;;;;;9162644;19;20472;-69
2023/08/17 10:25:11;;;;;;;7.22;2.90;;;19.80;74.20;;;;;;9160235;19;20025;-69
2023/08/17 10:28:18;;;;;;;8.38;3.10;;;19.80;74.20;;;;;;9160539;19;20030;-69
2023/08/17 10:31:29;;;;;;;5.63;3.05;;;19.80;74.10;;;;;;9160129;19;20019;-72
2023/08/17 10:34:34;;;;;;;8.55;3.10;;;19.90;74.10;;;;;;9161746;19;20480;-69
2023/08/17 10:37:43;;;;;;;6.82;2.70;;;19.90;74.10;;;;;;9159947;19;20713;-69
2023/08/17 10:41:12;;;;;;;7.03;2.95;;;19.90;74.20;;;;;;9162005;19;20018;-71
2023/08/17 10:44:41;;;;;;;9.35;3.10;;;19.90;74.20;;;;;;9169970;19;20018;-73
2023/08/17 10:47:50;;;;;;;9.10;3.13;;;19.90;74.20;;;;;;9168405;19;20029;-71
2023/08/17 10:51:07;;;;;;;4.18;2.95;;;19.90;74.10;;;;;;9168185;19;20026;-72
2023/08/17 10:54:12;;;;;;;7.90;3.22;;;19.90;74.30;;;;;;9167869;19;20335;-70
2023/08/17 10:57:34;;;;;;;12.13;3.70;;;19.90;74.20;;;;;;9163717;19;20022;-68
2023/08/17 11:00:42;;;;;;;9.65;3.85;;;20.00;74.30;;;;;;9167024;19;20498;-69
2023/08/17 11:04:12;;;;;;;9.43;3.65;;;19.90;74.20;;;;;;9167870;19;20376;-69
2023/08/17 11:07:17;;;;;;;6.13;3.05;;;19.90;74.30;;;;;;9171322;19;20018;-68
2023/08/17 11:10:33;;;;;;;7.70;3.70;;;19.90;74.30;;;;;;9167669;19;20040;-69
2023/08/17 11:13:40;;;;;;;6.90;3.93;;;19.90;74.40;;;;;;9167245;19;20373;-70
2023/08/17 11:16:49;;;;;;;8.45;3.97;;;19.90;74.30;;;;;;9169393;19;20254;-68
2023/08/17 11:19:57;;;;;;;6.90;3.65;;;19.90;74.40;;;;;;9166366;19;20031;-70
2023/08/17 11:23:05;;;;;;;9.82;4.20;;;19.90;74.40;;;;;;9169707;19;20021;-69
2023/08/17 11:26:12;;;;;;;10.57;3.60;;;19.90;74.40;;;;;;9169810;19;20438;-69
2023/08/17 11:29:20;;;;;;;5.72;3.53;;;19.90;74.40;;;;;;9168003;19;20527;-71
2023/08/17 11:32:26;;;;;;;12.38;4.05;;;19.90;74.40;;;;;;9167392;19;20014;-71
2023/08/17 11:35:36;;;;;;;6.97;3.83;;;19.80;74.50;;;;;;9166964;19;20025;-69
2023/08/17 11:38:46;;;;;;;10.30;4.50;;;19.80;74.60;;;;;;9167401;19;20353;-69
2023/08/17 11:41:55;;;;;;;9.93;5.18;;;19.90;74.70;;;;;;9165945;19;20018;-70
2023/08/17 11:45:03;;;;;;;7.07;4.88;;;19.90;74.60;;;;;;9165360;19;20033;-72
2023/08/17 11:48:12;;;;;;;13.45;5.05;;;19.90;74.80;;;;;;9166621;19;20026;-70
2023/08/17 11:51:31;;;;;;;12.02;5.18;;;19.90;74.80;;;;;;9166774;19;20022;-71
2023/08/17 11:54:47;;;;;;;9.95;4.50;;;19.90;74.90;;;;;;9167429;19;20018;-70
2023/08/17 11:57:56;;;;;;;10.73;5.10;;;19.90;74.80;;;;;;9163114;19;20021;-71
2023/08/17 12:01:03;;;;;;;9.40;5.30;;;19.90;74.80;;;;;;9163831;19;20017;-73
2023/08/17 12:04:09;;;;;;;9.25;5.20;;;19.90;74.80;;;;;;9165816;19;20014;-72
2023/08/17 12:07:21;;;;;;;12.55;5.55;;;19.90;74.80;;;;;;9168359;19;20025;-70
2023/08/17 12:10:27;;;;;;;11.30;5.13;;;20.00;74.90;;;;;;9167566;19;20812;-69
2023/08/17 12:13:36;;;;;;;13.65;6.30;;;20.00;74.90;;;;;;9167947;19;20014;-69
2023/08/17 12:16:49;;;;;;;10.70;6.18;;;20.00;74.90;;;;;;9165409;19;20351;-68
2023/08/17 12:19:58;;;;;;;15.50;6.78;;;20.00;75.00;;;;;;9163051;19;20625;-68
2023/08/17 12:23:06;;;;;;;11.38;6.90;;;20.10;74.90;;;;;;9167368;19;20048;-69
2023/08/17 12:26:21;;;;;;;11.88;7.53;;;20.00;74.90;;;;;;9164924;19;20563;-71
2023/08/17 12:29:27;;;;;;;14.85;7.60;;;20.10;75.00;;;;;;9163363;19;20049;-69
2023/08/17 12:32:37;;;;;;;12.35;7.95;;;20.10;75.00;;;;;;9166944;19;20023;-72
2023/08/17 12:35:42;;;;;;;12.75;7.43;;;20.10;75.00;;;;;;9166931;19;20017;-70
2023/08/17 12:38:55;;;;;;;11.30;7.05;;;20.20;75.00;;;;;;9164493;19;20017;-71
2023/08/17 12:42:01;;;;;;;12.43;6.70;;;20.20;75.10;;;;;;9164917;19;20018;-72
2023/08/17 12:45:09;;;;;;;10.75;7.47;;;20.20;75.00;;;;;;9166211;19;20018;-70
2023/08/17 12:48:14;;;;;;;11.60;6.88;;;20.20;75.00;;;;;;9164746;19;20010;-70
2023/08/17 12:51:22;;;;;;;17.67;7.00;;;20.20;75.00;;;;;;9165726;19;20022;-68
2023/08/17 12:54:30;;;;;;;16.00;6.75;;;20.30;75.10;;;;;;9163626;19;20042;-69
2023/08/17 12:57:37;;;;;;;10.55;6.50;;;20.40;75.10;;;;;;9160839;19;21544;-71
2023/08/17 13:00:43;;;;;;;12.18;6.68;;;20.40;75.00;;;;;;9164234;19;20362;-70
2023/08/17 13:03:50;;;;;;;10.68;6.90;;;20.50;75.00;;;;;;9163971;19;20015;-72
2023/08/17 13:06:55;;;;;;;12.60;7.57;;;20.60;75.00;;;;;;9165837;19;20086;-69
2023/08/17 13:10:09;;;;;;;14.25;9.68;;;20.70;75.00;;;;;;9165558;19;20480;-69
2023/08/17 13:13:15;;;;;;;12.05;7.93;;;20.70;74.80;;;;;;9164577;19;20027;-70
2023/08/17 13:16:22;;;;;;;13.82;9.07;;;20.70;74.80;;;;;;9163512;19;20086;-69
2023/08/17 13:19:28;;;;;;;15.80;9.75;;;20.70;74.80;;;;;;9164876;19;20353;-68
2023/08/17 13:22:35;;;;;;;16.60;9.75;;;20.80;74.80;;;;;;9165084;19;20022;-68
2023/08/17 13:25:44;;;;;;;19.52;10.20;;;20.80;74.80;;;;;;9162798;19;20058;-70
2023/08/17 13:28:53;;;;;;;16.75;9.65;;;20.80;74.80;;;;;;9162467;19;20022;-70
2023/08/17 13:31:59;;;;;;;14.60;10.00;;;20.80;74.70;;;;;;9162223;19;20027;-72
2023/08/17 13:35:09;;;;;;;16.88;10.40;;;20.90;74.80;;;;;;9158751;19;20014;-73
2023/08/17 13:38:15;;;;;;;15.07;9.90;;;20.90;74.80;;;;;;9160014;19;20045;-71
2023/08/17 13:41:25;;;;;;;16.85;9.48;;;20.90;74.70;;;;;;9158126;19;20468;-74
2023/08/17 13:44:31;;;;;;;13.75;9.02;;;21.00;74.80;;;;;;9159443;19;20506;-69
2023/08/17 13:47:38;;;;;;;18.35;8.95;;;21.00;74.70;;;;;;9161118;19;20015;-68
2023/08/17 13:50:52;;;;;;;14.98;9.05;;;21.00;74.70;;;;;;9159877;19;20022;-70
2023/08/17 13:54:00;;;;;;;20.50;9.30;;;21.00;74.60;;;;;;9159959;19;20014;-72
2023/08/17 13:57:08;;;;;;;18.42;10.13;;;21.00;74.60;;;;;;9156643;19;20026;-69
2023/08/17 14:00:16;;;;;;;17.45;10.70;;;21.10;74.70;;;;;;9159080;19;20011;-71
2023/08/17 14:03:26;;;;;;;16.10;10.95;;;21.10;74.70;;;;;;9160040;19;20018;-70
2023/08/17 14:06:33;;;;;;;17.73;9.77;;;21.10;74.70;;;;;;9159303;19;20018;-72
2023/08/17 14:09:39;;;;;;;13.95;9.25;;;21.10;74.80;;;;;;9158298;19;20014;-69
2023/08/17 14:12:55;;;;;;;16.23;9.07;;;21.10;74.70;;;;;;9160781;19;20030;-69
2023/08/17 14:16:00;;;;;;;18.95;8.45;;;21.10;74.80;;;;;;9155476;19;20018;-71
2023/08/17 14:19:07;;;;;;;16.17;8.23;;;21.10;74.70;;;;;;9160133;19;20022;-73
2023/08/17 14:22:13;;;;;;;14.45;9.10;;;21.20;74.80;;;;;;9156577;19;20022;-69
2023/08/17 14:25:20;;;;;;;18.50;8.57;;;21.20;74.70;;;;;;9158815;19;20010;-72
2023/08/17 14:28:28;;;;;;;13.70;8.88;;;21.20;74.70;;;;;;9160377;19;20011;-69
2023/08/17 14:31:36;;;;;;;13.35;8.90;;;21.20;74.70;;;;;;9160061;19;20031;-69
2023/08/17 14:34:41;;;;;;;16.92;9.57;;;21.20;74.60;;;;;;9158082;19;20379;-69
2023/08/17 14:37:49;;;;;;;20.65;11.45;;;21.30;74.70;;;;;;9160134;19;20017;-68
2023/08/17 14:40:54;;;;;;;15.20;9.77;;;21.30;74.70;;;;;;9158481;19;20025;-68
2023/08/17 14:44:04;;;;;;;15.70;10.50;;;21.30;74.70;;;;;;9159469;19;20423;-70
2023/08/17 14:47:10;;;;;;;19.98;9.45;;;21.30;74.70;;;;;;9159069;19;20011;-72
2023/08/17 14:50:19;;;;;;;18.63;10.65;;;21.30;74.70;;;;;;9156824;19;19999;-71
2023/08/17 14:53:24;;;;;;;18.58;10.82;;;21.30;74.60;;;;;;9158895;19;20402;-69
2023/08/17 14:56:31;;;;;;;14.88;10.05;;;21.40;74.70;;;;;;9152211;19;20018;-70
2023/08/17 14:59:39;;;;;;;19.00;10.27;;;21.30;74.70;;;;;;9159371;19;20025;-68
2023/08/17 15:02:47;;;;;;;14.27;9.85;;;21.40;74.80;;;;;;9154459;19;20025;-67
2023/08/17 15:05:55;;;;;;;13.43;8.93;;;21.40;74.70;;;;;;9159170;19;20356;-70
2023/08/17 15:09:05;;;;;;;14.15;9.48;;;21.40;74.70;;;;;;9158478;19;20464;-68
2023/08/17 15:12:11;;;;;;;17.80;9.82;;;21.40;74.80;;;;;;9155870;19;20479;-70
2023/08/17 15:15:24;;;;;;;21.13;11.10;;;21.40;74.80;;;;;;9159575;19;20029;-72
2023/08/17 15:18:30;;;;;;;14.23;10.05;;;21.50;74.80;;;;;;9157394;19;20098;-70
2023/08/17 15:21:39;;;;;;;14.48;8.68;;;21.50;74.80;;;;;;9153510;19;20014;-74
2023/08/17 15:24:46;;;;;;;10.48;8.50;;;21.50;74.70;;;;;;9158445;19;20022;-71
2023/08/17 15:27:53;;;;;;;10.77;7.47;;;21.60;74.80;;;;;;9162777;19;20019;-70
2023/08/17 15:31:12;;;;;;;16.10;7.80;;;21.60;74.70;;;;;;9163830;19;20020;-72
2023/08/17 15:34:19;;;;;;;9.07;6.68;;;21.60;74.80;;;;;;9167541;19;20021;-69
2023/08/17 15:37:24;;;;;;;12.82;6.75;;;21.70;74.60;;;;;;9167744;19;20056;-71
2023/08/17 15:40:33;;;;;;;12.93;8.85;;;21.70;74.60;;;;;;9166497;19;20020;-72
2023/08/17 15:43:38;;;;;;;12.40;8.77;;;21.70;74.60;;;;;;9168618;19;20021;-71
2023/08/17 15:46:49;;;;;;;11.73;7.43;;;21.70;74.60;;;;;;9166652;19;20408;-71
2023/08/17 15:49:54;;;;;;;9.82;6.78;;;21.70;74.70;;;;;;9161344;19;20014;-69
2023/08/17 15:53:03;;;;;;;8.57;6.03;;;21.70;74.60;;;;;;9162564;19;20021;-71
2023/08/17 15:56:08;;;;;;;13.18;5.55;;;21.70;74.60;;;;;;9158773;19;20105;-70
2023/08/17 15:59:15;;;;;;;12.70;6.00;;;21.70;74.50;;;;;;9164389;19;20011;-70
2023/08/17 16:02:23;;;;;;;10.60;7.30;;;21.70;74.60;;;;;;9160219;19;20448;-70
2023/08/17 16:05:31;;;;;;;13.10;6.70;;;21.70;74.60;;;;;;9166160;19;20017;-69
2023/08/17 16:08:37;;;;;;;8.95;7.03;;;21.70;74.50;;;;;;9166165;19;20015;-70
2023/08/17 16:11:47;;;;;;;13.65;6.97;;;21.60;74.50;;;;;;9165929;19;20603;-69
2023/08/17 16:14:52;;;;;;;10.80;8.25;;;21.60;74.50;;;;;;9164203;19;20117;-71